createdAt,value
2024-05-09T00:00:48.075Z,91.68
2024-05-09T00:03:36.356Z,91.88
2024-05-09T00:06:05.237Z,91.41
2024-05-09T00:08:33.721Z,91.24
2024-05-09T00:11:02.213Z,91.19
2024-05-09T00:13:30.431Z,91.14
2024-05-09T00:15:59.464Z,91.05
2024-05-09T00:18:27.843Z,90.97
2024-05-09T00:20:56.311Z,91.06
2024-05-09T00:23:24.930Z,90.95
2024-05-09T00:25:53.177Z,90.75
2024-05-09T00:28:21.432Z,90.42
2024-05-09T00:30:49.488Z,90.84
2024-05-09T00:33:17.828Z,90.78
2024-05-09T00:35:46.051Z,90.63
2024-05-09T00:38:14.164Z,90.30
2024-05-09T00:40:43.680Z,90.21
2024-05-09T00:43:14.306Z,90.26
2024-05-09T00:45:44.021Z,90.57
2024-05-09T00:48:17.260Z,90.48
2024-05-09T00:50:48.324Z,90.68
2024-05-09T00:53:18.191Z,90.89
2024-05-09T00:55:47.564Z,90.58
2024-05-09T00:58:18.232Z,90.62
2024-05-09T01:00:47.002Z,90.52
2024-05-09T01:03:15.516Z,90.44
2024-05-09T01:05:44.609Z,90.42
2024-05-09T01:08:13.450Z,89.97
2024-05-09T01:10:44.826Z,89.94
2024-05-09T01:13:14.247Z,89.82
2024-05-09T01:15:43.428Z,89.82
2024-05-09T01:18:13.201Z,89.59
2024-05-09T01:20:44.656Z,89.44
2024-05-09T01:23:15.714Z,89.32
2024-05-09T01:25:46.438Z,89.27
2024-05-09T01:28:16.512Z,89.14
2024-05-09T01:30:44.717Z,88.99
2024-05-09T01:33:13.501Z,89.11
2024-05-09T01:35:42.981Z,89.39
2024-05-09T01:38:17.424Z,90.71
2024-05-09T01:40:47.352Z,91.45
2024-05-09T01:43:16.301Z,90.83
2024-05-09T01:45:44.623Z,90.56
2024-05-09T01:48:12.961Z,90.95
2024-05-09T01:50:43.087Z,91.01
2024-05-09T01:53:14.856Z,90.68
2024-05-09T01:55:44.494Z,91.77
2024-05-09T01:58:13.271Z,92.72
2024-05-09T02:00:43.067Z,93.54
2024-05-09T02:03:16.170Z,94.15
2024-05-09T02:05:49.401Z,93.98
2024-05-09T02:08:19.905Z,93.97
2024-05-09T02:10:49.826Z,94.60
2024-05-09T02:13:18.701Z,93.66
2024-05-09T02:15:47.113Z,94.15
2024-05-09T02:18:15.385Z,94.59
2024-05-09T02:20:44.314Z,94.53
2024-05-09T02:23:13.882Z,94.18
2024-05-09T02:25:42.258Z,93.54
2024-05-09T02:28:10.435Z,94.20
2024-05-09T02:30:41.359Z,94.35
2024-05-09T02:33:13.000Z,94.27
2024-05-09T02:35:44.016Z,94.95
2024-05-09T02:38:13.567Z,94.67
2024-05-09T02:40:41.850Z,96.01
2024-05-09T02:43:12.693Z,96.37
2024-05-09T02:45:41.710Z,96.58
2024-05-09T02:48:12.198Z,98.33
2024-05-09T02:50:41.852Z,98.78
2024-05-09T02:53:14.485Z,98.69
2024-05-09T02:55:43.343Z,98.17
2024-05-09T02:58:12.203Z,97.69
2024-05-09T03:00:42.207Z,98.10
2024-05-09T03:03:14.216Z,98.23
2024-05-09T03:05:45.714Z,98.82
2024-05-09T03:08:14.363Z,98.31
2024-05-09T03:10:42.835Z,97.97
2024-05-09T03:13:15.087Z,97.96
2024-05-09T03:15:45.740Z,97.92
2024-05-09T03:18:14.914Z,98.11
2024-05-09T03:20:44.712Z,98.40
2024-05-09T03:23:13.257Z,97.83
2024-05-09T03:25:41.566Z,97.31
2024-05-09T03:28:09.734Z,96.54
2024-05-09T03:30:41.955Z,97.05
2024-05-09T03:33:14.058Z,97.92
2024-05-09T03:35:44.009Z,97.81
2024-05-09T03:38:12.401Z,97.30
2024-05-09T03:40:51.024Z,96.63
2024-05-09T03:43:20.121Z,96.54
2024-05-09T03:45:50.602Z,96.87
2024-05-09T03:48:19.135Z,96.12
2024-05-09T03:50:47.677Z,96.09
2024-05-09T03:53:16.303Z,96.24
2024-05-09T03:55:44.520Z,96.11
2024-05-09T03:58:14.693Z,94.94
2024-05-09T04:00:43.205Z,94.95
2024-05-09T04:03:13.050Z,94.73
2024-05-09T04:05:43.040Z,95.73
2024-05-09T04:08:15.297Z,95.27
2024-05-09T04:10:44.077Z,95.50
2024-05-09T04:13:12.485Z,95.33
2024-05-09T04:15:40.708Z,95.06
2024-05-09T04:18:09.018Z,95.18
2024-05-09T04:20:40.037Z,94.60
2024-05-09T04:23:14.584Z,95.71
2024-05-09T04:25:45.264Z,96.15
2024-05-09T04:28:14.308Z,95.97
2024-05-09T04:30:42.982Z,95.17
2024-05-09T04:33:15.041Z,96.12
2024-05-09T04:35:44.070Z,95.94
2024-05-09T04:38:14.017Z,95.38
2024-05-09T04:40:43.064Z,95.72
2024-05-09T04:43:16.010Z,95.51
2024-05-09T04:45:44.526Z,95.51
2024-05-09T04:48:12.877Z,95.16
2024-05-09T04:50:41.410Z,94.40
2024-05-09T04:53:11.272Z,94.24
2024-05-09T04:55:40.675Z,94.00
2024-05-09T04:58:09.601Z,93.68
2024-05-09T05:00:41.730Z,93.01
2024-05-09T05:03:14.277Z,93.17
2024-05-09T05:05:46.162Z,93.60
2024-05-09T05:08:16.742Z,94.34
2024-05-09T05:10:46.880Z,95.20
2024-05-09T05:13:24.687Z,95.06
2024-05-09T05:15:56.834Z,95.11
2024-05-09T05:18:27.852Z,94.63
2024-05-09T05:20:56.890Z,94.28
2024-05-09T05:23:25.483Z,94.37
2024-05-09T05:25:55.597Z,94.24
2024-05-09T05:28:24.179Z,94.21
2024-05-09T05:30:52.306Z,94.00
2024-05-09T05:33:22.785Z,94.00
2024-05-09T05:35:51.529Z,93.87
2024-05-09T05:38:22.867Z,94.29
2024-05-09T05:40:53.309Z,93.97
2024-05-09T05:43:21.697Z,93.85
2024-05-09T05:45:49.854Z,93.54
2024-05-09T05:48:18.692Z,93.79
2024-05-09T05:50:47.408Z,93.46
2024-05-09T05:53:15.897Z,93.19
2024-05-09T05:55:44.217Z,93.65
2024-05-09T05:58:12.711Z,93.64
2024-05-09T06:00:42.128Z,94.32
2024-05-09T06:03:14.429Z,93.52
2024-05-09T06:05:44.292Z,93.77
2024-05-09T06:08:12.981Z,93.54
2024-05-09T06:10:42.013Z,93.76
2024-05-09T06:13:11.500Z,93.36
2024-05-09T06:15:40.650Z,94.46
2024-05-09T06:18:10.612Z,94.94
2024-05-09T06:20:41.940Z,95.09
2024-05-09T06:23:12.406Z,94.47
2024-05-09T06:25:42.492Z,94.88
2024-05-09T06:28:11.416Z,94.58
2024-05-09T06:30:42.154Z,95.38
2024-05-09T06:33:14.365Z,95.34
2024-05-09T06:35:46.263Z,95.68
2024-05-09T06:38:14.862Z,95.29
2024-05-09T06:40:44.327Z,95.11
2024-05-09T06:43:18.461Z,94.82
2024-05-09T06:45:49.383Z,94.80
2024-05-09T06:48:19.495Z,94.68
2024-05-09T06:50:48.403Z,94.56
2024-05-09T06:53:17.722Z,94.38
2024-05-09T06:55:45.995Z,94.56
2024-05-09T06:58:14.447Z,94.02
2024-05-09T07:00:42.704Z,93.99
2024-05-09T07:03:14.268Z,93.90
2024-05-09T07:05:46.847Z,93.46
2024-05-09T07:08:16.518Z,93.05
2024-05-09T07:10:45.218Z,93.79
2024-05-09T07:13:15.275Z,93.42
2024-05-09T07:15:43.836Z,93.29
2024-05-09T07:18:15.569Z,93.22
2024-05-09T07:20:44.304Z,93.04
2024-05-09T07:23:13.128Z,92.64
2024-05-09T07:25:41.903Z,92.30
2024-05-09T07:28:20.628Z,92.22
2024-05-09T07:30:48.767Z,92.00
2024-05-09T07:33:19.905Z,91.81
2024-05-09T07:35:49.909Z,91.05
2024-05-09T07:38:18.224Z,91.08
2024-05-09T07:40:46.667Z,90.96
2024-05-09T07:43:16.240Z,90.52
2024-05-09T07:45:52.339Z,90.45
2024-05-09T07:52:39.003Z,90.04
2024-05-09T07:53:49.106Z,90.28
2024-05-09T07:56:22.515Z,89.75
2024-05-09T07:58:55.900Z,89.55
2024-05-09T08:01:26.533Z,90.11
2024-05-09T08:03:55.909Z,90.57
2024-05-09T08:06:25.504Z,90.43
2024-05-09T08:08:54.320Z,90.67
2024-05-09T08:11:23.982Z,90.65
2024-05-09T08:13:52.398Z,90.59
2024-05-09T08:16:20.550Z,90.30
2024-05-09T08:18:49.986Z,89.55
2024-05-09T08:21:19.418Z,89.87
2024-05-09T08:23:47.538Z,88.90
2024-05-09T08:26:15.705Z,88.82
2024-05-09T08:28:43.924Z,88.40
2024-05-09T08:31:12.371Z,88.42
2024-05-09T08:33:48.093Z,88.56
2024-05-09T08:36:16.698Z,88.48
2024-05-09T08:38:44.787Z,88.36
2024-05-09T08:41:15.754Z,88.55
2024-05-09T08:43:44.713Z,89.02
2024-05-09T08:46:14.228Z,89.08
2024-05-09T08:48:44.067Z,89.41
2024-05-09T08:51:14.056Z,89.76
2024-05-09T08:53:42.128Z,89.80
2024-05-09T08:56:11.923Z,90.31
2024-05-09T08:58:41.913Z,90.06
2024-05-09T09:01:12.177Z,89.98
2024-05-09T09:03:42.400Z,89.41
2024-05-09T09:06:12.685Z,89.43
2024-05-09T09:08:41.307Z,88.77
2024-05-09T09:11:09.482Z,87.93
2024-05-09T09:13:38.580Z,88.43
2024-05-09T09:16:07.228Z,88.63
2024-05-09T09:18:35.509Z,88.74
2024-05-09T09:21:04.804Z,88.57
2024-05-09T09:23:33.369Z,88.02
2024-05-09T09:26:01.690Z,88.40
2024-05-09T09:28:30.198Z,88.60
2024-05-09T09:31:05.408Z,88.66
2024-05-09T09:33:36.035Z,88.60
2024-05-09T09:36:07.510Z,89.05
2024-05-09T09:38:37.808Z,88.70
2024-05-09T09:41:12.484Z,88.34
2024-05-09T09:43:42.075Z,88.70
2024-05-09T09:46:12.986Z,88.74
2024-05-09T09:48:42.726Z,88.58
2024-05-09T09:51:11.548Z,87.57
2024-05-09T09:53:40.711Z,87.72
2024-05-09T09:56:10.530Z,87.14
2024-05-09T09:58:40.509Z,87.29
2024-05-09T10:01:08.792Z,87.08
2024-05-09T10:03:37.318Z,87.63
2024-05-09T10:06:07.841Z,87.70
2024-05-09T10:08:38.078Z,87.78
2024-05-09T10:11:06.767Z,87.58
2024-05-09T10:13:35.493Z,87.28
2024-05-09T10:16:09.586Z,87.05
2024-05-09T10:18:39.561Z,87.47
2024-05-09T10:21:21.032Z,88.04
2024-05-09T10:24:05.418Z,87.89
2024-05-09T10:26:34.634Z,87.69
2024-05-09T10:29:17.232Z,87.71
2024-05-09T10:31:46.778Z,87.94
2024-05-09T10:34:22.776Z,88.36
2024-05-09T10:36:55.240Z,88.42
2024-05-09T10:39:25.643Z,89.49
2024-05-09T10:41:53.766Z,89.29
2024-05-09T10:44:22.049Z,89.17
2024-05-09T10:46:50.791Z,88.97
2024-05-09T10:49:19.191Z,88.86
2024-05-09T10:51:48.860Z,88.96
2024-05-09T10:54:17.119Z,89.56
2024-05-09T10:56:45.327Z,90.00
2024-05-09T10:59:13.459Z,90.32
2024-05-09T11:01:41.694Z,90.45
2024-05-09T11:04:10.228Z,90.83
2024-05-09T11:06:39.595Z,90.83
2024-05-09T11:09:07.897Z,90.86
2024-05-09T11:11:36.159Z,91.14
2024-05-09T11:14:13.722Z,91.54
2024-05-09T11:16:41.853Z,92.88
2024-05-09T11:19:14.461Z,94.19
2024-05-09T11:21:42.995Z,95.02
2024-05-09T11:24:12.114Z,95.52
2024-05-09T11:26:40.202Z,95.50
2024-05-09T11:29:08.251Z,95.18
2024-05-09T11:31:48.442Z,95.83
2024-05-09T11:34:16.827Z,95.28
2024-05-09T11:36:45.269Z,94.93
2024-05-09T11:39:14.816Z,96.76
2024-05-09T11:41:43.179Z,98.57
2024-05-09T11:44:11.554Z,98.50
2024-05-09T11:46:39.633Z,98.32
2024-05-09T11:49:09.607Z,98.10
2024-05-09T11:51:37.951Z,99.47
2024-05-09T11:54:06.166Z,100.00
2024-05-09T11:56:34.347Z,100.00
2024-05-09T11:59:03.243Z,100.00
2024-05-09T12:01:31.474Z,99.87
2024-05-09T12:04:00.016Z,99.71
2024-05-09T12:06:29.564Z,99.51
2024-05-09T12:08:57.931Z,99.96
2024-05-09T12:11:26.106Z,99.16
2024-05-09T12:13:54.252Z,98.84
2024-05-09T12:16:22.438Z,98.89
2024-05-09T12:18:50.776Z,98.25
2024-05-09T12:21:19.122Z,97.91
2024-05-09T12:23:47.246Z,97.63
2024-05-09T12:26:15.986Z,97.41
2024-05-09T12:28:44.428Z,96.27
2024-05-09T12:31:12.508Z,96.06
2024-05-09T12:33:40.776Z,95.78
2024-05-09T12:36:08.952Z,95.57
2024-05-09T12:38:37.017Z,95.41
2024-05-09T12:41:05.749Z,94.96
2024-05-09T12:43:33.966Z,94.63
2024-05-09T12:46:03.649Z,94.09
2024-05-09T12:48:32.008Z,93.66
2024-05-09T12:51:00.141Z,92.78
2024-05-09T12:53:28.516Z,92.50
2024-05-09T12:56:00.195Z,92.54
2024-05-09T12:58:31.033Z,92.92
2024-05-09T13:00:59.282Z,92.26
2024-05-09T13:03:27.522Z,92.62
2024-05-09T13:05:56.011Z,92.66
2024-05-09T13:08:24.634Z,92.30
2024-05-09T13:10:52.918Z,92.26
2024-05-09T13:13:21.166Z,91.80
2024-05-09T13:15:49.435Z,92.04
2024-05-09T13:18:17.593Z,92.27
2024-05-09T13:20:45.724Z,92.09
2024-05-09T13:23:13.708Z,92.13
2024-05-09T13:25:41.903Z,92.55
2024-05-09T13:28:10.193Z,92.30
2024-05-09T13:30:41.235Z,91.80
2024-05-09T13:33:12.207Z,91.39
2024-05-09T13:35:46.890Z,91.57
2024-05-09T13:38:19.379Z,91.73
2024-05-09T13:40:48.403Z,91.89
2024-05-09T13:43:17.827Z,91.92
2024-05-09T13:45:46.743Z,91.75
2024-05-09T13:48:15.176Z,91.49
2024-05-09T13:50:43.578Z,91.55
2024-05-09T13:53:11.861Z,90.66
2024-05-09T13:55:40.890Z,90.94
2024-05-09T13:58:09.746Z,90.61
2024-05-09T14:00:46.059Z,91.08
2024-05-09T14:03:19.827Z,90.47
2024-05-09T14:05:51.268Z,90.32
2024-05-09T14:08:21.648Z,90.01
2024-05-09T14:10:50.541Z,88.93
2024-05-09T14:13:20.009Z,89.77
2024-05-09T14:15:49.022Z,89.88
2024-05-09T14:18:18.044Z,90.10
2024-05-09T14:20:46.157Z,90.39
2024-05-09T14:23:14.981Z,89.52
2024-05-09T14:25:45.013Z,89.43
2024-05-09T14:28:14.455Z,89.22
2024-05-09T14:30:43.003Z,88.85
2024-05-09T14:33:11.715Z,87.35
2024-05-09T14:35:40.205Z,87.72
2024-05-09T14:38:09.929Z,87.94
2024-05-09T14:40:42.952Z,88.24
2024-05-09T14:43:14.456Z,88.57
2024-05-09T14:45:44.287Z,88.61
2024-05-09T14:48:16.573Z,88.44
2024-05-09T14:50:44.640Z,87.99
2024-05-09T14:53:13.736Z,87.95
2024-05-09T14:55:43.558Z,87.80
2024-05-09T14:58:13.219Z,87.51
2024-05-09T15:00:46.489Z,86.86
2024-05-09T15:03:19.241Z,87.61
2024-05-09T15:05:48.030Z,88.32
2024-05-09T15:08:18.001Z,86.75
2024-05-09T15:10:46.751Z,86.36
2024-05-09T15:13:16.856Z,84.50
2024-05-09T15:15:45.679Z,84.67
2024-05-09T15:18:15.147Z,83.82
2024-05-09T15:20:44.761Z,83.78
2024-05-09T15:23:13.411Z,83.86
2024-05-09T15:25:41.629Z,84.47
2024-05-09T15:28:09.918Z,84.69
2024-05-09T15:30:39.074Z,84.49
2024-05-09T15:33:08.258Z,84.92
2024-05-09T15:35:41.086Z,84.93
2024-05-09T15:38:09.529Z,84.16
2024-05-09T15:40:40.283Z,84.45
2024-05-09T15:43:11.104Z,82.19
2024-05-09T15:45:41.407Z,82.21
2024-05-09T15:48:11.372Z,82.49
2024-05-09T15:50:42.144Z,82.80
2024-05-09T15:53:13.430Z,81.13
2024-05-09T15:55:42.871Z,80.84
2024-05-09T15:58:12.280Z,80.60
2024-05-09T16:00:44.056Z,78.65
2024-05-09T16:03:14.831Z,79.18
2024-05-09T16:05:48.182Z,76.86
2024-05-09T16:08:16.995Z,78.17
2024-05-09T16:10:47.280Z,75.46
2024-05-09T16:13:16.876Z,76.48
2024-05-09T16:15:46.019Z,77.09
2024-05-09T16:18:14.429Z,75.95
2024-05-09T16:20:44.816Z,73.75
2024-05-09T16:23:14.591Z,74.47
2024-05-09T16:25:45.518Z,75.18
2024-05-09T16:28:13.822Z,75.59
2024-05-09T16:30:42.204Z,74.14
2024-05-09T16:33:11.775Z,74.07
2024-05-09T16:35:40.539Z,74.45
2024-05-09T16:38:08.967Z,75.06
2024-05-09T16:40:40.414Z,74.69
2024-05-09T16:43:11.574Z,73.69
2024-05-09T16:45:43.302Z,74.61
2024-05-09T16:48:11.776Z,74.66
2024-05-09T16:50:39.910Z,74.93
2024-05-09T16:53:08.495Z,75.25
2024-05-09T16:55:36.987Z,74.86
2024-05-09T16:58:08.348Z,73.57
2024-05-09T17:00:41.828Z,74.02
2024-05-09T17:03:15.132Z,74.73
2024-05-09T17:05:46.894Z,75.41
2024-05-09T17:08:20.218Z,75.96
2024-05-09T17:10:49.347Z,75.54
2024-05-09T17:13:19.023Z,75.62
2024-05-09T17:15:48.809Z,75.65
2024-05-09T17:18:17.102Z,75.95
2024-05-09T17:20:45.327Z,76.39
2024-05-09T17:23:14.386Z,76.83
2024-05-09T17:25:43.419Z,77.28
2024-05-09T17:28:12.251Z,77.26
2024-05-09T17:30:42.227Z,77.78
2024-05-09T17:33:12.741Z,78.48
2024-05-09T17:35:41.756Z,78.65
2024-05-09T17:38:09.924Z,78.15
2024-05-09T17:40:39.099Z,77.81
2024-05-09T17:43:09.763Z,77.78
2024-05-09T17:45:40.782Z,77.84
2024-05-09T17:48:11.574Z,77.96
2024-05-09T17:50:41.691Z,77.87
2024-05-09T17:53:10.851Z,78.08
2024-05-09T17:55:40.565Z,78.25
2024-05-09T17:58:09.885Z,78.47
2024-05-09T18:00:41.196Z,79.58
2024-05-09T18:03:12.310Z,79.41
2024-05-09T18:05:43.978Z,79.91
2024-05-09T18:08:13.447Z,79.91
2024-05-09T18:10:42.574Z,80.90
2024-05-09T18:13:13.249Z,79.94
2024-05-09T18:15:42.015Z,80.92
2024-05-09T18:18:12.874Z,80.89
2024-05-09T18:20:44.877Z,82.00
2024-05-09T18:23:17.569Z,82.04
2024-05-09T18:25:47.854Z,83.64
2024-05-09T18:28:17.205Z,84.08
2024-05-09T18:30:46.403Z,84.11
2024-05-09T18:33:15.272Z,83.36
2024-05-09T18:35:45.111Z,83.33
2024-05-09T18:38:13.539Z,83.17
2024-05-09T18:40:44.765Z,82.96
2024-05-09T18:43:15.196Z,82.69
2024-05-09T18:45:43.778Z,82.93
2024-05-09T18:48:13.927Z,82.87
2024-05-09T18:50:42.322Z,82.97
2024-05-09T18:53:12.364Z,82.96
2024-05-09T18:55:42.755Z,82.48
2024-05-09T18:58:11.211Z,82.61
2024-05-09T19:00:41.808Z,82.40
2024-05-09T19:03:14.203Z,84.41
2024-05-09T19:05:45.084Z,84.30
2024-05-09T19:08:15.607Z,84.47
2024-05-09T19:10:45.768Z,84.44
2024-05-09T19:13:14.777Z,84.30
2024-05-09T19:15:44.069Z,86.52
2024-05-09T19:18:13.889Z,88.27
2024-05-09T19:20:43.903Z,88.46
2024-05-09T19:23:12.445Z,88.65
2024-05-09T19:25:40.716Z,88.27
2024-05-09T19:28:09.015Z,87.94
2024-05-09T19:30:41.119Z,87.28
2024-05-09T19:33:13.306Z,88.14
2024-05-09T19:35:43.360Z,87.66
2024-05-09T19:38:12.655Z,87.10
2024-05-09T19:40:41.136Z,87.38
2024-05-09T19:43:09.692Z,87.12
2024-05-09T19:45:38.360Z,86.68
2024-05-09T19:48:07.210Z,85.81
2024-05-09T19:50:42.049Z,85.60
2024-05-09T19:53:14.536Z,84.23
2024-05-09T19:55:43.326Z,84.97
2024-05-09T19:58:12.652Z,84.56
2024-05-09T20:00:43.449Z,84.09
2024-05-09T20:03:14.991Z,84.54
2024-05-09T20:05:46.725Z,84.21
2024-05-09T20:08:15.581Z,84.10
2024-05-09T20:10:43.822Z,84.40
2024-05-09T20:13:12.144Z,84.21
2024-05-09T20:15:40.820Z,83.96
2024-05-09T20:18:09.205Z,84.20
2024-05-09T20:20:41.444Z,84.05
2024-05-09T20:23:12.547Z,83.81
2024-05-09T20:25:42.034Z,83.94
2024-05-09T20:28:11.245Z,83.99
2024-05-09T20:30:39.754Z,83.43
2024-05-09T20:33:09.239Z,84.00
2024-05-09T20:35:38.176Z,84.26
2024-05-09T20:38:06.489Z,84.55
2024-05-09T20:40:37.786Z,84.37
2024-05-09T20:43:10.146Z,84.54
2024-05-09T20:45:40.120Z,83.97
2024-05-09T20:48:09.470Z,83.92
2024-05-09T20:50:41.043Z,83.73
2024-05-09T20:53:13.837Z,84.00
2024-05-09T20:55:44.420Z,83.98
2024-05-09T20:58:13.883Z,83.70
2024-05-09T21:00:45.735Z,84.24
2024-05-09T21:03:16.931Z,84.05
2024-05-09T21:05:48.295Z,84.01
2024-05-09T21:08:17.197Z,83.72
2024-05-09T21:10:45.554Z,83.39
2024-05-09T21:13:14.118Z,83.02
2024-05-09T21:15:42.390Z,82.83
2024-05-09T21:18:10.551Z,82.59
2024-05-09T21:20:38.824Z,82.94
2024-05-09T21:23:07.167Z,83.16
2024-05-09T21:25:35.343Z,82.88
2024-05-09T21:28:04.162Z,83.13
2024-05-09T21:30:41.074Z,82.79
2024-05-09T21:33:13.178Z,82.54
2024-05-09T21:35:43.441Z,82.56
2024-05-09T21:38:13.814Z,82.51
2024-05-09T21:40:42.944Z,82.15
2024-05-09T21:43:11.463Z,82.30
2024-05-09T21:45:39.793Z,82.44
2024-05-09T21:48:08.509Z,82.15
2024-05-09T21:50:40.942Z,82.73
2024-05-09T21:53:12.426Z,82.12
2024-05-09T21:55:42.589Z,81.94
2024-05-09T21:58:14.631Z,82.08
2024-05-09T22:00:45.595Z,81.70
2024-05-09T22:03:14.680Z,82.00
2024-05-09T22:05:45.024Z,82.58
2024-05-09T22:08:13.665Z,82.17
2024-05-09T22:10:42.280Z,82.44
2024-05-09T22:13:10.791Z,82.26
2024-05-09T22:15:40.521Z,82.33
2024-05-09T22:18:11.014Z,82.01
2024-05-09T22:20:45.639Z,82.12
2024-05-09T22:23:15.691Z,82.02
2024-05-09T22:25:44.373Z,82.11
2024-05-09T22:28:16.282Z,82.31
2024-05-09T22:30:46.232Z,82.62
2024-05-09T22:33:15.379Z,82.41
2024-05-09T22:35:43.644Z,82.69
2024-05-09T22:38:11.651Z,82.36
2024-05-09T22:40:47.261Z,81.97
2024-05-09T22:43:23.367Z,82.10
2024-05-09T22:46:07.511Z,82.16
2024-05-09T22:48:36.099Z,82.42
2024-05-09T22:51:04.973Z,82.55
2024-05-09T22:53:33.019Z,82.39
2024-05-09T22:56:01.194Z,82.16
2024-05-09T22:58:34.300Z,82.46
2024-05-09T23:01:02.616Z,82.39
2024-05-09T23:03:32.978Z,82.39
2024-05-09T23:06:06.124Z,82.52
2024-05-09T23:08:34.315Z,83.04
2024-05-09T23:11:04.000Z,82.67
2024-05-09T23:13:33.521Z,82.18
2024-05-09T23:16:02.104Z,82.49
2024-05-09T23:18:30.148Z,82.44
2024-05-09T23:21:00.557Z,82.78
2024-05-09T23:23:28.833Z,82.65
2024-05-09T23:25:57.110Z,82.51
2024-05-09T23:28:25.194Z,82.45
2024-05-09T23:30:53.384Z,82.65
2024-05-09T23:33:21.617Z,83.36
2024-05-09T23:35:49.816Z,85.30
2024-05-09T23:38:20.921Z,85.39
2024-05-09T23:40:51.157Z,85.18
2024-05-09T23:43:19.525Z,85.95
2024-05-09T23:45:47.795Z,85.75
2024-05-09T23:48:16.158Z,85.94
2024-05-09T23:50:44.307Z,87.37
2024-05-09T23:53:14.483Z,88.59
2024-05-09T23:55:42.486Z,88.87
2024-05-09T23:58:11.396Z,88.00
